Time;durP1;ratioP1;P1;durP2;ratioP2;P2;SDS_P1;SDS_P2;PMS_P1;PMS_P2;Temp;Humidity;BMP_temperature;BMP_pressure;BME280_temperature;BME280_humidity;BME280_pressure;Samples;Min_cycle;Max_cycle;Signal;HPM_P1;HPM_P2
2022/07/14 00:02:05;;;;;;;;;3.00;3.00;;;;;21.35;44.29;99769.19;6341054;20;2745208;-60
2022/07/14 00:04:35;;;;;;;;;4.00;3.00;;;;;21.44;44.23;99768.25;6318962;20;2746084;-59
2022/07/14 00:07:03;;;;;;;;;3.67;2.67;;;;;21.30;44.50;99758.75;6317817;20;2735668;-59
2022/07/14 00:09:33;;;;;;;;;2.40;2.40;;;;;21.17;45.36;99761.03;6342384;20;2739873;-59
2022/07/14 00:12:02;;;;;;;;;2.33;2.33;;;;;21.00;45.28;99755.47;6317891;20;2737779;-59
2022/07/14 00:14:30;;;;;;;;;5.00;3.33;;;;;21.15;45.70;99750.28;6319837;20;2746167;-59
2022/07/14 00:16:59;;;;;;;;;4.00;4.00;;;;;21.09;45.16;99753.69;6315951;20;2754524;-59
2022/07/14 00:19:28;;;;;;;;;4.00;4.00;;;;;21.36;44.49;99757.25;6317895;20;2754457;-60
2022/07/14 00:21:56;;;;;;;;;4.33;4.00;;;;;21.66;43.82;99762.19;6317051;20;2756576;-60
2022/07/14 00:24:25;;;;;;;;;6.33;3.00;;;;;21.27;45.07;99751.75;6318266;20;2747166;-59
2022/07/14 00:26:53;;;;;;;;;1.33;1.33;;;;;21.25;45.42;99753.78;6316192;20;2732723;-59
2022/07/14 00:29:25;;;;;;;;;2.57;2.43;;;;;21.33;45.32;99747.50;6358395;20;3445020;-59
2022/07/14 00:31:53;;;;;;;;;2.00;2.00;;;;;21.42;44.49;99751.16;6319497;20;2719005;-59
2022/07/14 00:34:22;;;;;;;;;4.00;3.33;;;;;21.56;44.26;99756.00;6314332;20;2751713;-59
2022/07/14 00:36:50;;;;;;;;;3.67;3.00;;;;;21.38;45.23;99756.09;6317066;20;2742099;-58
2022/07/14 00:39:20;;;;;;;;;4.60;3.00;;;;;21.22;45.17;99756.84;6339552;20;2744038;-59
2022/07/14 00:41:48;;;;;;;;;3.00;3.00;;;;;21.13;46.04;99755.06;6319097;20;2727407;-59
2022/07/14 00:44:17;;;;;;;;;4.67;3.00;;;;;21.41;45.19;99750.31;6318016;20;2746748;-60
2022/07/14 00:46:47;;;;;;;;;4.00;4.00;;;;;21.37;45.38;99751.59;6336664;20;2753430;-59
2022/07/14 00:49:36;;;;;;;;;4.00;4.00;;;;;21.45;44.15;99753.56;6285743;20;2752313;-59
2022/07/14 00:52:05;;;;;;;;;2.33;2.33;;;;;21.42;44.43;99748.44;6316264;20;2755461;-59
2022/07/14 00:54:34;;;;;;;;;3.00;3.00;;;;;21.27;45.30;99754.47;6316509;20;2744040;-59
2022/07/14 00:57:02;;;;;;;;;3.00;2.00;;;;;21.05;46.07;99747.66;6316432;20;2737770;-59
2022/07/14 00:59:31;;;;;;;;;3.00;3.00;;;;;21.04;46.69;99743.22;6315891;20;2741954;-59
2022/07/14 01:01:59;;;;;;;;;2.00;2.00;;;;;21.09;46.22;99741.88;6316604;20;2733092;-59
2022/07/14 01:04:28;;;;;;;;;2.00;2.00;;;;;20.99;47.36;99745.59;6316981;20;2738958;-59
2022/07/14 01:06:57;;;;;;;;;3.00;3.00;;;;;20.90;47.87;99737.50;6317829;20;2733746;-59
2022/07/14 01:09:25;;;;;;;;;3.67;2.00;;;;;20.68;49.03;99745.19;6317198;20;2752331;-59
2022/07/14 01:11:54;;;;;;;;;3.00;3.00;;;;;20.65;49.18;99740.03;6318450;20;2741932;-59
2022/07/14 01:14:22;;;;;;;;;3.00;3.00;;;;;21.00;45.81;99749.16;6312968;20;2735689;-59
2022/07/14 01:16:56;;;;;;;;;2.33;2.33;;;;;21.22;46.14;99754.09;6311572;20;2742959;-59
2022/07/14 01:19:26;;;;;;;;;5.00;3.20;;;;;21.33;44.86;99749.34;6340282;20;2742008;-60
2022/07/14 01:21:57;;;;;;;;;3.20;3.20;;;;;21.37;44.27;99750.75;6338617;20;2750252;-60
2022/07/14 01:24:27;;;;;;;;;4.00;2.67;;;;;21.54;43.31;99755.34;6284281;20;2738788;-60
2022/07/14 01:27:03;;;;;;;;;5.33;5.00;;;;;21.61;44.12;99748.16;6314392;20;2748281;-59
2022/07/14 01:29:33;;;;;;;;;4.40;4.00;;;;;21.50;44.43;99747.63;6338105;20;2742958;-60
2022/07/14 01:32:03;;;;;;;;;6.00;3.60;;;;;21.56;43.78;99752.41;6338408;20;2742451;-60
2022/07/14 01:34:32;;;;;;;;;5.20;3.00;;;;;21.43;44.66;99748.28;6335072;20;2740997;-59
2022/07/14 01:37:02;;;;;;;;;3.60;3.60;;;;;21.37;44.32;99750.75;6335562;20;2754978;-60
2022/07/14 01:39:31;;;;;;;;;6.40;3.80;;;;;21.59;43.86;99752.09;6305710;20;2738811;-59
2022/07/14 01:42:00;;;;;;;;;4.67;4.00;;;;;21.60;43.49;99751.94;6315758;20;2753494;-60
2022/07/14 01:44:28;;;;;;;;;4.00;4.00;;;;;21.55;43.56;99762.50;6313760;20;2756525;-60
2022/07/14 01:46:58;;;;;;;;;3.80;3.80;;;;;21.51;44.52;99752.91;6336105;20;2738847;-59
2022/07/14 01:49:28;;;;;;;;;4.33;4.00;;;;;21.36;44.75;99754.53;6315392;20;2749362;-59
2022/07/14 01:51:57;;;;;;;;;3.00;3.00;;;;;21.26;44.87;99744.56;6314895;20;2748301;-60
2022/07/14 01:54:26;;;;;;;;;3.00;3.00;;;;;21.29;44.66;99748.84;6334779;20;2738836;-60
2022/07/14 01:56:55;;;;;;;;;5.33;5.33;;;;;21.28;44.63;99744.41;6308876;20;2750339;-59
2022/07/14 01:59:23;;;;;;;;;3.33;3.33;;;;;21.29;44.53;99747.97;6316050;20;2746120;-60
2022/07/14 02:01:52;;;;;;;;;4.00;3.00;;;;;21.40;43.98;99747.72;6319277;20;2629575;-60
2022/07/14 02:04:21;;;;;;;;;5.20;4.20;;;;;21.09;45.55;99753.69;6334089;20;2741922;-60
2022/07/14 02:06:56;;;;;;;;;6.00;4.33;;;;;20.99;46.34;99752.94;6308911;20;2750374;-60
2022/07/14 02:12:10;;;;;;;;;3.20;3.20;;;;;20.81;46.17;99748.34;6333690;20;2751289;-60
2022/07/14 02:12:16;;;;;;;;;4.00;4.00;;;;;20.88;46.04;99750.44;6285911;20;2751346;-60
2022/07/14 02:14:45;;;;;;;;;3.67;3.67;;;;;20.75;46.58;99750.88;6314788;20;2755464;-60
2022/07/14 02:17:15;;;;;;;;;5.00;4.00;;;;;20.60;47.18;99750.56;6336603;20;2756497;-60
2022/07/14 02:19:43;;;;;;;;;3.00;3.00;;;;;20.61;46.52;99744.94;6288699;20;2756540;-59
2022/07/14 02:22:12;;;;;;;;;4.00;4.00;;;;;20.30;47.51;99744.47;6319904;20;2746088;-59
2022/07/14 02:24:41;;;;;;;;;3.00;3.00;;;;;20.41;47.43;99748.00;6320542;20;2746257;-59
2022/07/14 02:27:09;;;;;;;;;3.00;3.00;;;;;20.16;48.09;99745.00;6318305;20;2748207;-59
2022/07/14 02:29:38;;;;;;;;;4.00;4.00;;;;;19.99;49.88;99751.31;6318759;20;2756014;-59
2022/07/14 02:32:06;;;;;;;;;4.00;4.00;;;;;19.77;50.73;99750.69;6319414;20;2754881;-60
2022/07/14 02:34:35;;;;;;;;;5.00;3.00;;;;;19.77;50.08;99750.69;6317106;20;2752409;-59
2022/07/14 02:37:03;;;;;;;;;4.00;3.00;;;;;19.88;49.63;99753.22;6317711;20;2746105;-59
2022/07/14 02:39:31;;;;;;;;;3.00;3.00;;;;;19.67;49.79;99748.03;6292630;20;2737796;-60
2022/07/14 02:41:58;;;;;;;;;2.00;2.00;;;;;19.55;50.83;99753.81;6295461;20;2732581;-60
2022/07/14 02:44:26;;;;;;;;;3.50;3.50;;;;;19.24;52.32;99759.50;6288245;20;2749295;-54
2022/07/14 02:46:54;;;;;;;;;5.00;4.00;;;;;18.80;54.79;99762.78;6288706;20;2735721;-54
2022/07/14 02:49:22;;;;;;;;;5.00;5.00;;;;;18.60;55.80;99756.44;6289530;20;2754417;-54
2022/07/14 02:51:49;;;;;;;;;3.00;3.00;;;;;18.52;56.99;99763.63;6288528;20;2750313;-55
2022/07/14 02:54:17;;;;;;;;;8.00;5.00;;;;;18.56;56.96;99757.75;6286924;20;2742197;-59
2022/07/14 02:56:47;;;;;;;;;5.20;4.00;;;;;18.47;56.36;99758.59;6310173;20;2751365;-58
2022/07/14 02:59:15;;;;;;;;;7.50;3.00;;;;;18.80;55.73;99756.44;6286177;20;2754420;-56
2022/07/14 03:01:43;;;;;;;;;4.00;3.00;;;;;19.00;54.54;99757.28;6288656;20;2740979;-57
2022/07/14 03:04:10;;;;;;;;;6.00;4.50;;;;;19.00;54.73;99763.56;6290709;20;2740899;-54
2022/07/14 03:06:40;;;;;;;;;4.80;4.80;;;;;18.99;53.61;99771.91;6312342;20;2745089;-56
2022/07/14 03:09:08;;;;;;;;;3.50;3.50;;;;;18.72;54.19;99764.44;6319629;20;2755571;-56
2022/07/14 03:11:37;;;;;;;;;5.60;5.00;;;;;18.60;55.30;99769.19;6309558;20;2752374;-53
2022/07/14 03:14:05;;;;;;;;;6.00;5.00;;;;;18.67;56.09;99772.19;6317774;20;2745057;-56
2022/07/14 03:16:33;;;;;;;;;6.00;5.00;;;;;18.62;55.87;99764.47;6289543;20;2749253;-55
2022/07/14 03:19:01;;;;;;;;;7.00;6.00;;;;;18.47;57.56;99774.91;6289139;20;2737773;-53
2022/07/14 03:21:28;;;;;;;;;6.00;4.50;;;;;18.88;55.41;99775.66;6285623;20;2730557;-54
2022/07/14 03:23:56;;;;;;;;;5.50;4.50;;;;;18.57;57.37;99783.94;6289132;20;2747141;-56
2022/07/14 03:26:24;;;;;;;;;8.00;6.50;;;;;18.47;57.28;99780.34;6286433;20;2738902;-55
2022/07/14 03:28:53;;;;;;;;;5.60;4.80;;;;;18.58;57.13;99784.78;6313040;20;2726292;-56
2022/07/14 03:31:23;;;;;;;;;8.60;6.00;;;;;18.42;58.64;99777.19;6339874;20;2748338;-55
2022/07/14 03:33:53;;;;;;;;;5.40;5.40;;;;;18.84;56.30;99782.38;6342338;20;2748169;-56
2022/07/14 03:36:21;;;;;;;;;6.00;6.00;;;;;18.87;56.92;99779.34;6317482;20;2748210;-55
2022/07/14 03:38:49;;;;;;;;;6.00;6.00;;;;;19.05;55.92;99780.31;6291171;20;2744040;-53
2022/07/14 03:41:17;;;;;;;;;5.00;5.00;;;;;19.14;54.50;99775.00;6288630;20;2742966;-54
2022/07/14 03:43:47;;;;;;;;;4.80;3.20;;;;;19.39;53.34;99777.06;6312711;20;2744002;-55
2022/07/14 03:46:16;;;;;;;;;4.20;4.00;;;;;19.37;53.08;99773.63;6338202;20;2745074;-55
2022/07/14 03:48:44;;;;;;;;;10.00;5.00;;;;;19.48;52.78;99778.91;6316517;20;2750545;-55
2022/07/14 03:51:12;;;;;;;;;7.00;4.50;;;;;19.68;52.06;99773.41;6287923;20;2728390;-56
2022/07/14 03:53:42;;;;;;;;;9.60;6.00;;;;;19.66;52.68;99769.94;6309707;20;2758587;-53
2022/07/14 03:56:09;;;;;;;;;7.00;5.00;;;;;19.69;52.64;99775.97;6286587;20;2732593;-55
2022/07/14 03:58:38;;;;;;;;;7.33;5.33;;;;;19.77;52.48;99775.22;6284256;20;2737864;-54
2022/07/14 04:01:06;;;;;;;;;7.00;6.00;;;;;19.95;51.88;99776.13;6319340;20;2735665;-54
2022/07/14 04:03:34;;;;;;;;;8.50;6.50;;;;;20.02;52.57;99775.53;6286829;20;2732600;-54
2022/07/14 04:06:02;;;;;;;;;4.00;4.00;;;;;20.15;51.18;99776.00;6289110;20;2735683;-57
2022/07/14 04:08:31;;;;;;;;;6.00;5.00;;;;;20.22;52.11;99781.69;6311746;20;2732579;-54
2022/07/14 04:11:01;;;;;;;;;7.00;6.40;;;;;20.38;50.60;99773.69;6340798;20;2739845;-59
2022/07/14 04:13:32;;;;;;;;;6.60;6.40;;;;;20.25;51.30;99781.38;6339783;20;2734684;-57
2022/07/14 04:16:02;;;;;;;;;6.40;6.40;;;;;20.38;51.04;99774.56;6337081;20;2748172;-57
2022/07/14 04:18:32;;;;;;;;;6.00;4.67;;;;;20.41;51.24;99775.25;6314357;20;2752370;-58
2022/07/14 04:21:00;;;;;;;;;6.00;6.00;;;;;20.42;50.76;99783.25;6317346;20;2744036;-59
2022/07/14 04:23:30;;;;;;;;;6.40;6.40;;;;;20.33;52.07;99770.56;6308251;20;2739875;-59
2022/07/14 04:26:05;;;;;;;;;4.50;4.50;;;;;20.51;51.34;99771.44;6317319;20;2738785;-58
2022/07/14 04:28:33;;;;;;;;;5.00;5.00;;;;;20.51;51.50;99778.75;6287433;20;2742081;-61
2022/07/14 04:31:02;;;;;;;;;5.00;5.00;;;;;21.02;50.67;99779.91;6294169;20;2739889;-60
2022/07/14 04:33:33;;;;;;;;;5.00;5.00;;;;;20.75;50.85;99783.63;6342048;20;2738788;-59
2022/07/14 04:36:02;;;;;;;;;6.00;6.00;;;;;20.75;51.38;99779.00;6339117;20;2748194;-59
2022/07/14 04:38:34;;;;;;;;;6.00;6.00;;;;;20.90;50.61;99789.34;6343088;20;2748263;-59
2022/07/14 04:41:04;;;;;;;;;7.00;5.20;;;;;20.82;51.70;99774.59;6311752;20;2741000;-59
2022/07/14 04:43:36;;;;;;;;;5.00;5.00;;;;;20.91;50.87;99778.28;6360768;20;3443989;-59
2022/07/14 04:46:05;;;;;;;;;6.60;5.00;;;;;20.73;52.23;99785.63;6343141;20;2732552;-59
2022/07/14 04:52:01;;;;;;;;;8.00;8.00;;;;;20.73;52.18;99786.50;6342399;20;2733585;-59
2022/07/14 04:54:13;;;;;;;;;6.80;6.80;;;;;20.68;52.73;99788.84;6342926;20;2737756;-58
2022/07/14 04:56:41;;;;;;;;;6.33;6.33;;;;;20.73;52.78;99781.03;6317532;20;2737784;-59
2022/07/14 04:59:25;;;;;;;;;6.00;6.00;;;;;20.77;52.38;99789.75;6318625;20;2740900;-59
2022/07/14 05:01:54;;;;;;;;;6.00;6.00;;;;;20.69;53.76;99789.69;6314131;20;2738793;-58
2022/07/14 05:04:24;;;;;;;;;6.00;6.00;;;;;20.76;54.12;99788.03;6341567;20;2738258;-58
2022/07/14 05:06:55;;;;;;;;;8.00;6.80;;;;;20.90;53.62;99794.81;6342425;20;2748214;-60
2022/07/14 05:09:25;;;;;;;;;7.00;7.00;;;;;21.34;51.12;99794.78;6341250;20;2741942;-58
2022/07/14 05:11:55;;;;;;;;;8.80;7.80;;;;;21.66;51.24;99795.00;6343566;20;2748168;-58
2022/07/14 05:14:23;;;;;;;;;7.00;6.00;;;;;21.85;50.12;99795.75;6287267;20;2740928;-58
2022/07/14 05:16:53;;;;;;;;;8.00;8.00;;;;;22.18;49.38;99793.16;6341685;20;2749208;-58
2022/07/14 05:19:46;;;;;;;;;6.60;6.60;;;;;22.77;48.38;99793.94;6310581;20;2734630;-58
2022/07/14 05:22:15;;;;;;;;;7.00;6.00;;;;;23.18;47.13;99786.59;6320063;20;2726378;-57
2022/07/14 05:24:45;;;;;;;;;5.40;5.40;;;;;23.42;46.97;99782.97;6342289;20;2738803;-58
2022/07/14 05:27:15;;;;;;;;;5.80;5.00;;;;;23.80;45.41;99783.22;6337815;20;2744022;-60
2022/07/14 05:29:43;;;;;;;;;6.33;5.00;;;;;24.02;45.03;99786.22;6321062;20;2740893;-58
2022/07/14 05:32:13;;;;;;;;;7.00;6.00;;;;;24.37;44.76;99786.69;6343251;20;2748200;-58
2022/07/14 05:34:45;;;;;;;;;6.60;6.00;;;;;24.69;43.90;99793.88;6310923;20;2741915;-58
2022/07/14 05:37:13;;;;;;;;;5.33;5.33;;;;;24.58;44.73;99789.66;6288124;20;2744021;-57
2022/07/14 05:39:42;;;;;;;;;4.67;4.67;;;;;24.43;44.51;99783.22;6318114;20;2741018;-57
2022/07/14 05:42:11;;;;;;;;;7.67;5.00;;;;;24.38;45.60;99793.88;6316779;20;2750273;-57
2022/07/14 05:44:41;;;;;;;;;6.00;6.00;;;;;24.39;46.25;99790.13;6342355;20;2738838;-58
2022/07/14 05:47:12;;;;;;;;;5.50;4.83;;;;;24.77;45.80;99793.81;6335601;20;1792021;-58
2022/07/14 05:49:43;;;;;;;;;6.00;5.33;;;;;25.24;44.32;99797.41;6326360;20;2745177;-58
2022/07/14 05:52:13;;;;;;;;;5.00;5.00;;;;;25.41;43.90;99796.19;6319661;20;2748194;-58
2022/07/14 05:54:42;;;;;;;;;4.80;4.80;;;;;25.97;42.77;99806.75;6347800;20;2744005;-58
2022/07/14 05:57:13;;;;;;;;;5.20;4.40;;;;;26.10;43.00;99790.41;6344389;20;2744062;-58
2022/07/14 05:59:42;;;;;;;;;6.00;4.60;;;;;26.06;41.45;99800.94;6348289;20;2745033;-58
2022/07/14 06:02:14;;;;;;;;;4.33;4.00;;;;;25.93;41.70;99799.91;6331005;20;2748156;-58
2022/07/14 06:04:45;;;;;;;;;7.60;4.80;;;;;26.41;41.01;99803.03;6348631;20;2747121;-59
2022/07/14 06:07:15;;;;;;;;;6.00;6.00;;;;;26.51;40.37;99803.56;6315498;20;2735667;-58
2022/07/14 06:09:44;;;;;;;;;7.00;4.20;;;;;26.36;41.11;99803.63;6347302;20;2747113;-59
2022/07/14 06:12:14;;;;;;;;;6.00;4.60;;;;;26.67;40.37;99805.25;6317075;20;2742063;-59
2022/07/14 06:14:44;;;;;;;;;6.60;4.00;;;;;26.54;40.46;99807.88;6314575;20;2743995;-58
2022/07/14 06:17:12;;;;;;;;;5.00;5.00;;;;;27.11;40.21;99815.22;6319000;20;2736849;-59
2022/07/14 06:19:42;;;;;;;;;7.60;5.80;;;;;26.98;39.93;99806.84;6344492;20;2740904;-58
2022/07/14 06:22:11;;;;;;;;;5.60;4.80;;;;;27.21;40.02;99807.50;6315340;20;2746567;-59
2022/07/14 06:24:43;;;;;;;;;4.67;4.67;;;;;27.15;39.30;99802.75;6292864;20;2737906;-58
2022/07/14 06:27:16;;;;;;;;;6.00;6.00;;;;;27.20;39.46;99807.69;6347180;20;2723186;-58
2022/07/14 06:29:45;;;;;;;;;5.40;5.40;;;;;27.91;38.96;99804.81;6346192;20;2745084;-59
2022/07/14 06:32:15;;;;;;;;;5.00;5.00;;;;;28.51;38.40;99811.44;6316196;20;2744004;-59
2022/07/14 06:34:45;;;;;;;;;5.80;4.20;;;;;28.64;37.94;99800.44;6315101;20;2730457;-59
2022/07/14 06:37:16;;;;;;;;;4.00;4.00;;;;;28.95;37.40;99803.69;6320947;20;2734619;-58
2022/07/14 06:39:46;;;;;;;;;7.80;5.40;;;;;29.12;37.11;99804.13;6347061;20;2732600;-59
2022/07/14 06:42:15;;;;;;;;;6.80;5.00;;;;;29.67;36.22;99801.97;6312654;20;2736720;-59
2022/07/14 06:44:44;;;;;;;;;4.33;4.33;;;;;29.85;35.18;99804.91;6323451;20;2749289;-59
2022/07/14 06:47:13;;;;;;;;;4.80;3.60;;;;;30.09;35.75;99803.34;6342977;20;2735681;-58
2022/07/14 06:49:42;;;;;;;;;6.00;5.00;;;;;30.64;34.13;99800.13;6292113;20;2740910;-58
2022/07/14 06:52:10;;;;;;;;;5.00;5.00;;;;;30.62;34.42;99803.13;6322076;20;2746148;-58
2022/07/14 06:54:39;;;;;;;;;3.33;3.00;;;;;31.06;33.11;99804.09;6323723;20;2739839;-58
2022/07/14 06:57:09;;;;;;;;;4.00;4.00;;;;;30.79;33.63;99792.34;6318816;20;2748258;-57
2022/07/14 06:59:39;;;;;;;;;5.00;5.00;;;;;31.28;32.59;99800.94;6347564;20;2748169;-58
2022/07/14 07:02:08;;;;;;;;;4.60;4.00;;;;;31.14;32.35;99793.81;6316112;20;2744436;-58
2022/07/14 07:04:37;;;;;;;;;4.33;4.33;;;;;31.14;32.94;99791.88;6321608;20;2732543;-59
2022/07/14 07:07:07;;;;;;;;;4.00;4.00;;;;;31.61;33.14;99792.31;6343467;20;2741931;-58
2022/07/14 07:09:36;;;;;;;;;2.67;2.67;;;;;32.08;31.23;99784.34;6292953;20;2733631;-56
2022/07/14 07:12:05;;;;;;;;;3.00;3.00;;;;;32.13;31.47;99792.84;6323094;20;2725369;-57
2022/07/14 07:14:34;;;;;;;;;7.80;7.00;;;;;32.44;31.02;99790.06;6347927;20;2743999;-58
2022/07/14 07:17:03;;;;;;;;;4.00;4.00;;;;;33.12;30.30;99792.50;6291387;20;2725532;-57
2022/07/14 07:19:32;;;;;;;;;5.00;5.00;;;;;32.90;30.37;99781.06;6345952;20;2737842;-58
2022/07/14 07:22:02;;;;;;;;;3.80;3.80;;;;;31.99;31.19;99782.09;6314329;20;2748237;-57
2022/07/14 07:24:31;;;;;;;;;3.33;3.33;;;;;32.07;31.43;99777.09;6289759;20;2743065;-58
2022/07/14 07:27:00;;;;;;;;;0.40;0.40;;;;;31.52;32.13;99779.84;6343719;20;2735804;-58
2022/07/14 07:29:30;;;;;;;;;3.00;3.00;;;;;31.90;31.20;99787.09;6313612;20;2746123;-58
2022/07/14 07:31:58;;;;;;;;;2.00;2.00;;;;;32.77;30.38;99786.84;6289799;20;2736794;-58
2022/07/14 07:34:28;;;;;;;;;2.60;2.20;;;;;33.58;28.67;99781.69;6344519;20;2739920;-56
2022/07/14 07:36:57;;;;;;;;;5.00;4.60;;;;;32.48;30.42;99772.72;6312448;20;2746109;-57
2022/07/14 07:39:46;;;;;;;;;3.33;3.33;;;;;32.04;29.93;99779.47;6292447;20;2770158;-59
2022/07/14 07:42:15;;;;;;;;;2.20;2.20;;;;;31.54;31.80;99774.88;6343229;20;2745055;-58
2022/07/14 07:44:44;;;;;;;;;6.00;4.00;;;;;31.44;31.58;99780.13;6290964;20;2748361;-58
2022/07/14 07:47:13;;;;;;;;;5.00;3.00;;;;;31.01;31.84;99780.91;6318189;20;2747182;-58
2022/07/14 07:49:42;;;;;;;;;5.00;4.40;;;;;30.62;31.74;99775.41;6346223;20;2731546;-58
2022/07/14 07:52:12;;;;;;;;;4.00;2.60;;;;;30.63;32.93;99781.78;6312818;20;2748241;-58
2022/07/14 07:54:44;;;;;;;;;3.60;3.60;;;;;31.01;31.62;99778.13;6313359;20;2745174;-58
2022/07/14 07:57:36;;;;;;;;;5.80;4.40;;;;;31.70;31.86;99788.19;6311655;20;2741915;-58
2022/07/14 08:00:07;;;;;;;;;3.67;3.67;;;;;32.30;30.43;99778.28;6289711;20;2742965;-58
2022/07/14 08:02:49;;;;;;;;;2.60;2.60;;;;;32.35;30.51;99786.78;6344789;20;2750335;-57
2022/07/14 08:05:23;;;;;;;;;4.60;4.60;;;;;32.25;30.59;99778.16;6314535;20;2748156;-59
2022/07/14 08:08:13;;;;;;;;;2.00;2.00;;;;;33.06;29.54;99778.72;6311606;20;2739840;-58
2022/07/14 08:10:42;;;;;;;;;3.33;3.33;;;;;31.82;30.06;99781.84;6291975;20;2731564;-58
2022/07/14 08:13:11;;;;;;;;;6.00;4.00;;;;;32.45;29.27;99781.50;6321834;20;2725244;-58
2022/07/14 08:15:41;;;;;;;;;4.00;4.00;;;;;32.24;29.66;99777.31;6346167;20;2740931;-58
2022/07/14 08:18:11;;;;;;;;;4.80;3.60;;;;;32.53;28.57;99775.66;6312792;20;2739914;-58
2022/07/14 08:20:41;;;;;;;;;3.20;3.20;;;;;33.04;28.48;99770.59;6313846;20;2739887;-59
2022/07/14 08:23:11;;;;;;;;;3.00;3.00;;;;;33.26;27.99;99770.00;6313964;20;2738887;-57
2022/07/14 08:25:39;;;;;;;;;3.67;3.67;;;;;32.84;28.79;99765.34;6291549;20;2741914;-58
2022/07/14 08:28:08;;;;;;;;;5.67;3.00;;;;;33.87;26.83;99769.53;6317828;20;2754573;-58
2022/07/14 08:30:37;;;;;;;;;5.00;3.00;;;;;34.42;25.63;99770.13;6345292;20;2744005;-58
2022/07/14 08:33:08;;;;;;;;;3.00;2.00;;;;;33.40;27.04;99765.91;6289968;20;2743987;-58
2022/07/14 08:35:37;;;;;;;;;2.67;2.00;;;;;34.37;25.54;99770.03;6322923;20;2743991;-58
2022/07/14 08:38:06;;;;;;;;;2.00;2.00;;;;;34.81;25.03;99767.50;6339767;20;2736840;-58
2022/07/14 08:40:39;;;;;;;;;4.00;3.00;;;;;34.63;24.19;99772.22;6288982;20;2739914;-58
2022/07/14 08:43:09;;;;;;;;;7.67;6.00;;;;;34.61;23.46;99760.47;6331089;20;2739832;-58
2022/07/14 08:45:42;;;;;;;;;7.00;7.00;;;;;34.81;24.09;99770.28;6316003;20;2748238;-58
2022/07/14 08:48:11;;;;;;;;;9.33;9.33;;;;;34.44;23.78;99762.31;6327100;20;2758654;-58
2022/07/14 08:50:40;;;;;;;;;12.33;11.00;;;;;34.56;24.51;99765.91;6318257;20;2786723;-57
2022/07/14 08:53:12;;;;;;;;;11.67;10.00;;;;;34.89;24.18;99761.50;6315274;20;3514801;-58
2022/07/14 08:55:41;;;;;;;;;8.33;7.33;;;;;34.77;23.92;99760.75;6284816;20;2746097;-58
2022/07/14 08:58:10;;;;;;;;;10.33;8.33;;;;;35.57;23.55;99766.03;6316048;20;3481882;-58
2022/07/14 09:00:38;;;;;;;;;9.33;8.00;;;;;35.32;23.12;99762.81;6326728;20;2752351;-58
2022/07/14 09:03:07;;;;;;;;;7.00;7.00;;;;;34.88;23.95;99765.41;6318731;20;2750278;-59
2022/07/14 09:05:43;;;;;;;;;6.00;5.00;;;;;34.61;23.82;99763.25;6318594;20;2741903;-59
2022/07/14 09:08:14;;;;;;;;;4.00;4.00;;;;;34.75;23.68;99755.41;6343599;20;2728495;-58
2022/07/14 09:10:46;;;;;;;;;10.33;8.00;;;;;34.63;23.55;99744.34;6285591;20;3496088;-59
2022/07/14 09:13:34;;;;;;;;;7.00;7.00;;;;;35.20;22.88;99753.69;6319499;20;2744046;-58
2022/07/14 09:16:20;;;;;;;;;10.00;9.00;;;;;34.41;23.31;99746.09;6318854;20;2769022;-56
2022/07/14 09:19:06;;;;;;;;;7.00;7.00;;;;;34.35;23.67;99741.53;6318678;20;2739906;-58
2022/07/14 09:21:38;;;;;;;;;6.67;6.67;;;;;35.04;23.57;99727.44;6319771;20;2746878;-57
2022/07/14 09:24:10;;;;;;;;;6.00;6.00;;;;;35.45;22.73;99737.31;6319000;20;2735680;-56
2022/07/14 09:26:51;;;;;;;;;13.00;11.00;;;;;35.60;22.62;99734.78;6311090;20;3516931;-58
2022/07/14 09:29:29;;;;;;;;;9.67;8.67;;;;;35.35;21.98;99734.38;6282937;20;3483563;-58
2022/07/14 09:31:57;;;;;;;;;7.67;7.67;;;;;36.30;20.50;99718.34;6315799;20;3458969;-58
2022/07/14 09:34:32;;;;;;;;;7.00;7.00;;;;;35.47;21.34;99723.97;6316097;20;2743041;-58
2022/07/14 09:37:16;;;;;;;;;3.33;3.33;;;;;36.07;20.71;99725.06;6318054;20;2738805;-58
2022/07/14 09:39:58;;;;;;;;;2.00;2.00;;;;;35.06;21.09;99723.28;6320945;20;2729446;-59
2022/07/14 09:42:51;;;;;;;;;5.33;1.67;;;;;34.48;20.80;99719.75;6317856;20;2748160;-57
2022/07/14 09:45:31;;;;;;;;;5.00;1.00;;;;;34.11;21.58;99719.34;6319317;20;2747110;-58
2022/07/14 09:48:09;;;;;;;;;1.00;1.00;;;;;35.26;20.21;99727.53;6323174;20;2454655;-57
2022/07/14 09:50:59;;;;;;;;;2.00;2.00;;;;;35.04;20.99;99717.13;6318401;20;2744080;-59
2022/07/14 09:53:36;;;;;;;;;0.40;0.40;;;;;34.64;21.48;99717.28;6342798;20;2741941;-58
2022/07/14 09:56:09;;;;;;;;;1.00;1.00;;;;;35.32;20.50;99720.94;6284445;20;2744056;-58
2022/07/14 09:58:54;;;;;;;;;1.00;1.00;;;;;35.80;20.52;99719.38;6338704;20;2744051;-57
2022/07/14 10:01:25;;;;;;;;;1.00;1.00;;;;;35.26;20.71;99721.94;6310842;20;2741944;-59
2022/07/14 10:03:55;;;;;;;;;3.33;2.00;;;;;35.51;20.32;99705.56;6316098;20;2747255;-60
2022/07/14 10:06:27;;;;;;;;;1.00;1.00;;;;;35.73;20.33;99718.72;6339967;20;2744091;-58
2022/07/14 10:09:06;;;;;;;;;1.00;1.00;;;;;35.70;20.38;99708.06;6311186;20;2744039;-56
2022/07/14 10:11:36;;;;;;;;;4.67;3.33;;;;;36.17;20.70;99701.97;6283021;20;2750281;-58
2022/07/14 10:14:06;;;;;;;;;0.00;0.00;;;;;35.81;20.33;99698.72;6338235;20;2732540;-54
2022/07/14 10:16:35;;;;;;;;;2.67;2.00;;;;;35.62;20.74;99698.19;6282636;20;2735711;-58
2022/07/14 10:19:05;;;;;;;;;3.00;2.00;;;;;36.06;20.79;99681.41;6317273;20;2734665;-57
2022/07/14 10:21:45;;;;;;;;;3.33;1.00;;;;;36.14;20.15;99692.16;6318140;20;2738812;-57
2022/07/14 10:24:14;;;;;;;;;1.00;1.00;;;;;35.54;21.34;99688.28;6318364;20;2744188;-57
2022/07/14 10:26:46;;;;;;;;;2.20;2.20;;;;;34.87;21.33;99677.22;6337674;20;2748374;-58
2022/07/14 10:29:16;;;;;;;;;3.00;1.00;;;;;34.94;21.46;99678.75;6307375;20;2753371;-62
2022/07/14 10:32:32;;;;;;;;;4.40;3.00;;;;;35.46;21.11;99677.56;6311885;20;2741916;-62
2022/07/14 10:35:43;;;;;;;;;1.50;1.50;;;;;35.31;21.44;99677.34;6315028;20;2616970;-62
2022/07/14 10:38:46;;;;;;;;;0.00;0.00;;;;;36.31;20.40;99678.09;6344795;20;2726334;-62
2022/07/14 10:42:11;;;;;;;;;2.00;2.00;;;;;34.74;21.57;99679.25;6323314;20;2738821;-62
2022/07/14 10:44:46;;;;;;;;;3.60;2.00;;;;;34.25;22.10;99664.13;6340310;20;2744038;-62
2022/07/14 10:47:19;;;;;;;;;2.00;2.00;;;;;34.67;22.04;99667.41;6311493;20;2739843;-61
2022/07/14 10:50:09;;;;;;;;;3.33;2.33;;;;;35.87;21.41;99668.91;6291566;20;2745465;-64
2022/07/14 10:53:08;;;;;;;;;3.00;3.00;;;;;34.62;22.59;99664.53;6323682;20;2742983;-63
2022/07/14 10:55:40;;;;;;;;;3.20;2.00;;;;;34.47;22.99;99662.31;6340850;20;2751402;-63
2022/07/14 10:58:09;;;;;;;;;2.00;2.00;;;;;34.02;22.26;99649.19;6314778;20;2727480;-63
2022/07/14 11:00:44;;;;;;;;;2.80;2.80;;;;;34.63;21.76;99654.25;6306261;20;2739912;-61
2022/07/14 11:03:25;;;;;;;;;3.33;2.33;;;;;34.51;22.16;99651.50;6292346;20;2748295;-64
2022/07/14 11:06:05;;;;;;;;;5.00;2.00;;;;;34.29;23.02;99643.88;6346972;20;2748183;-63
2022/07/14 11:09:22;;;;;;;;;3.00;3.00;;;;;33.98;23.07;99644.38;6292426;20;2750244;-63
2022/07/14 11:12:14;;;;;;;;;3.00;2.20;;;;;35.53;21.08;99644.72;6343673;20;2750240;-64
2022/07/14 11:14:45;;;;;;;;;3.80;2.00;;;;;34.62;21.98;99636.63;6315117;20;2746119;-63
2022/07/14 11:17:46;;;;;;;;;2.00;2.00;;;;;35.66;21.27;99645.47;6291645;20;2744067;-63
2022/07/14 11:20:16;;;;;;;;;1.67;1.67;;;;;35.01;21.94;99633.06;6319563;20;2735690;-63
2022/07/14 11:23:23;;;;;;;;;1.00;1.00;;;;;34.73;21.68;99649.69;6345896;20;2730484;-64
2022/07/14 11:25:54;;;;;;;;;2.00;2.00;;;;;34.13;21.55;99639.13;6290611;20;2742049;-64
2022/07/14 11:28:50;;;;;;;;;3.00;3.00;;;;;34.41;21.80;99635.41;6344853;20;2754460;-62
2022/07/14 11:31:23;;;;;;;;;2.80;1.00;;;;;34.98;19.50;99631.63;6313830;20;2732548;-63
2022/07/14 11:37:05;;;;;;;;;1.00;1.00;;;;;35.02;19.86;99632.81;6311356;20;2748167;-63
2022/07/14 11:39:54;;;;;;;;;1.00;1.00;;;;;35.84;18.42;99625.56;6313105;20;2738902;-63
2022/07/14 11:42:23;;;;;;;;;0.80;0.80;;;;;36.14;19.27;99635.41;6311234;20;2737749;-63
2022/07/14 11:44:54;;;;;;;;;1.00;1.00;;;;;35.15;19.79;99637.19;6314297;20;2728443;-63
2022/07/14 11:47:29;;;;;;;;;1.00;1.00;;;;;34.23;21.33;99619.78;6311143;20;2731545;-64